N355CP KSEE-KLPC
Flight info
| Callsign | N355CP |
|---|---|
| Flight time | 1h 21m |
| Altitude | 8000 |
| Route | CWARD2 LAX V299 VTU T257 RZS V12 GVO |
| Aircraft | C208/L-SDFGR/EB1 |
Departure
| Time | 2026-05-07 00:17 |
|---|---|
| Airport | Gillespie Field (KSEE) |
Arrival
| Time | 2026-05-07 01:39 |
|---|---|
| Airport | Lompoc Airport (KLPC) |
| Time | Latitude | Longitude | Altitude | Speed | Heading |
|---|---|---|---|---|---|
| 2026-05-07 00:00 | 32.82503 | -116.96928 | 382 ft | 0 kts | 11° |
| 2026-05-07 00:11 | 32.82512 | -116.96918 | 381 ft | 7 kts | 69° |
| 2026-05-07 00:11 | 32.82537 | -116.96832 | 384 ft | 18 kts | 90° |
| 2026-05-07 00:12 | 32.82504 | -116.96644 | 390 ft | 25 kts | 104° |
| 2026-05-07 00:12 | 32.82482 | -116.96479 | 393 ft | 11 kts | 60° |
| 2026-05-07 00:12 | 32.82539 | -116.96442 | 393 ft | 18 kts | 358° |
| 2026-05-07 00:12 | 32.82594 | -116.96448 | 391 ft | 9 kts | 316° |
| 2026-05-07 00:13 | 32.82602 | -116.96456 | 393 ft | 0 kts | 319° |
| 2026-05-07 00:16 | 32.82616 | -116.96468 | 393 ft | 9 kts | 327° |
| 2026-05-07 00:16 | 32.82667 | -116.96581 | 391 ft | 23 kts | 282° |
| 2026-05-07 00:16 | 32.82723 | -116.96897 | 380 ft | 63 kts | 281° |
| 2026-05-07 00:16 | 32.82850 | -116.97544 | 463 ft | 90 kts | 281° |
| 2026-05-07 00:17 | 32.83114 | -116.98256 | 652 ft | 104 kts | 314° |
| 2026-05-07 00:17 | 32.83808 | -116.98590 | 896 ft | 109 kts | 333° |
| 2026-05-07 00:17 | 32.84478 | -116.98953 | 1136 ft | 105 kts | 331° |
| 2026-05-07 00:17 | 32.85148 | -116.99311 | 1377 ft | 103 kts | 331° |
| 2026-05-07 00:18 | 32.85834 | -116.99654 | 1609 ft | 111 kts | 330° |
| 2026-05-07 00:18 | 32.86556 | -117.00042 | 1865 ft | 117 kts | 332° |
| 2026-05-07 00:18 | 32.87301 | -117.00475 | 2123 ft | 123 kts | 332° |
| 2026-05-07 00:18 | 32.88057 | -117.00918 | 2372 ft | 123 kts | 331° |
| 2026-05-07 00:19 | 32.88826 | -117.01374 | 2606 ft | 123 kts | 331° |
| 2026-05-07 00:19 | 32.89583 | -117.01835 | 2865 ft | 123 kts | 332° |
| 2026-05-07 00:19 | 32.90350 | -117.02310 | 3120 ft | 126 kts | 331° |
| 2026-05-07 00:19 | 32.91131 | -117.02811 | 3374 ft | 129 kts | 331° |
| 2026-05-07 00:20 | 32.91880 | -117.03413 | 3628 ft | 132 kts | 308° |
| 2026-05-07 00:20 | 32.92164 | -117.04446 | 3884 ft | 134 kts | 279° |
| 2026-05-07 00:20 | 32.92327 | -117.05571 | 4006 ft | 145 kts | 281° |
| 2026-05-07 00:20 | 32.92520 | -117.06806 | 4024 ft | 158 kts | 281° |
| 2026-05-07 00:21 | 32.92725 | -117.08120 | 4023 ft | 164 kts | 281° |
| 2026-05-07 00:21 | 32.92937 | -117.09475 | 4019 ft | 168 kts | 281° |
| 2026-05-07 00:21 | 32.93143 | -117.10814 | 4209 ft | 159 kts | 281° |
| 2026-05-07 00:21 | 32.93330 | -117.12073 | 4448 ft | 151 kts | 280° |
| 2026-05-07 00:22 | 32.93506 | -117.13285 | 4689 ft | 146 kts | 281° |
| 2026-05-07 00:22 | 32.93675 | -117.14456 | 4927 ft | 142 kts | 281° |
| 2026-05-07 00:22 | 32.93834 | -117.15601 | 5159 ft | 139 kts | 281° |
| 2026-05-07 00:22 | 32.93991 | -117.16740 | 5397 ft | 140 kts | 281° |
| 2026-05-07 00:23 | 32.94142 | -117.17881 | 5637 ft | 139 kts | 281° |
| 2026-05-07 00:23 | 32.94287 | -117.19023 | 5884 ft | 140 kts | 281° |
| 2026-05-07 00:23 | 32.94430 | -117.20170 | 6130 ft | 140 kts | 281° |
| 2026-05-07 00:23 | 32.94568 | -117.21319 | 6380 ft | 140 kts | 281° |
| 2026-05-07 00:24 | 32.94700 | -117.22464 | 6615 ft | 139 kts | 282° |
| 2026-05-07 00:24 | 32.94819 | -117.23604 | 6849 ft | 138 kts | 280° |
| 2026-05-07 00:24 | 32.94935 | -117.24735 | 7082 ft | 137 kts | 281° |
| 2026-05-07 00:24 | 32.95049 | -117.25869 | 7320 ft | 139 kts | 281° |
| 2026-05-07 00:25 | 32.95162 | -117.27016 | 7554 ft | 140 kts | 280° |
| 2026-05-07 00:25 | 32.95274 | -117.28151 | 7795 ft | 136 kts | 281° |
| 2026-05-07 00:25 | 32.95381 | -117.29264 | 8003 ft | 137 kts | 281° |
| 2026-05-07 00:25 | 32.95507 | -117.30446 | 8012 ft | 150 kts | 287° |
| 2026-05-07 00:26 | 32.95873 | -117.31640 | 8023 ft | 157 kts | 297° |
| 2026-05-07 00:26 | 32.96287 | -117.32879 | 8008 ft | 164 kts | 294° |
| 2026-05-07 00:26 | 32.96656 | -117.34189 | 8006 ft | 169 kts | 291° |
| 2026-05-07 00:26 | 32.96999 | -117.35538 | 8006 ft | 172 kts | 290° |
| 2026-05-07 00:27 | 32.97342 | -117.36906 | 8008 ft | 173 kts | 290° |
| 2026-05-07 00:27 | 32.97687 | -117.38279 | 8008 ft | 174 kts | 290° |
| 2026-05-07 00:27 | 32.98033 | -117.39657 | 8007 ft | 174 kts | 290° |
| 2026-05-07 00:27 | 32.98381 | -117.41041 | 8007 ft | 174 kts | 290° |
| 2026-05-07 00:28 | 32.98730 | -117.42427 | 8003 ft | 175 kts | 290° |
| 2026-05-07 00:28 | 32.99078 | -117.43812 | 8007 ft | 175 kts | 290° |
| 2026-05-07 00:28 | 32.99426 | -117.45201 | 8008 ft | 175 kts | 290° |
| 2026-05-07 00:28 | 32.99776 | -117.46593 | 8010 ft | 175 kts | 290° |
| 2026-05-07 00:29 | 33.00126 | -117.47987 | 8010 ft | 176 kts | 290° |
| 2026-05-07 00:29 | 33.00475 | -117.49380 | 8007 ft | 176 kts | 290° |
| 2026-05-07 00:30 | 33.01516 | -117.53538 | 8009 ft | 175 kts | 291° |
| 2026-05-07 00:30 | 33.01869 | -117.54946 | 8008 ft | 175 kts | 291° |
| 2026-05-07 00:30 | 33.02525 | -117.57562 | 8007 ft | 176 kts | 291° |
| 2026-05-07 00:31 | 33.02873 | -117.58958 | 8010 ft | 176 kts | 290° |
| 2026-05-07 00:31 | 33.03217 | -117.60336 | 8010 ft | 176 kts | 290° |
| 2026-05-07 00:31 | 33.03571 | -117.61756 | 8008 ft | 176 kts | 291° |
| 2026-05-07 00:31 | 33.03915 | -117.63133 | 8008 ft | 176 kts | 291° |
| 2026-05-07 00:32 | 33.04263 | -117.64533 | 8008 ft | 176 kts | 291° |
| 2026-05-07 00:32 | 33.04617 | -117.65951 | 8011 ft | 176 kts | 290° |
| 2026-05-07 00:32 | 33.04965 | -117.67351 | 8012 ft | 176 kts | 290° |
| 2026-05-07 00:32 | 33.05314 | -117.68749 | 8011 ft | 176 kts | 290° |
| 2026-05-07 00:33 | 33.05657 | -117.70132 | 8014 ft | 176 kts | 290° |
| 2026-05-07 00:33 | 33.06005 | -117.71533 | 8010 ft | 176 kts | 291° |
| 2026-05-07 00:33 | 33.06453 | -117.72879 | 8002 ft | 172 kts | 308° |
| 2026-05-07 00:33 | 33.07280 | -117.73869 | 8005 ft | 168 kts | 325° |
| 2026-05-07 00:34 | 33.08175 | -117.74765 | 8009 ft | 168 kts | 323° |
| 2026-05-07 00:34 | 33.09063 | -117.75674 | 8010 ft | 168 kts | 324° |
| 2026-05-07 00:34 | 33.09952 | -117.76579 | 8009 ft | 168 kts | 324° |
| 2026-05-07 00:34 | 33.10840 | -117.77482 | 8010 ft | 168 kts | 324° |
| 2026-05-07 00:35 | 33.11729 | -117.78385 | 8009 ft | 167 kts | 324° |
| 2026-05-07 00:35 | 33.12615 | -117.79287 | 8010 ft | 167 kts | 324° |
| 2026-05-07 00:35 | 33.13502 | -117.80189 | 8006 ft | 168 kts | 324° |
| 2026-05-07 00:35 | 33.14391 | -117.81093 | 8005 ft | 168 kts | 324° |
| 2026-05-07 00:36 | 33.15276 | -117.81995 | 8004 ft | 167 kts | 324° |
| 2026-05-07 00:36 | 33.16161 | -117.82897 | 8008 ft | 167 kts | 324° |
| 2026-05-07 00:36 | 33.17049 | -117.83800 | 8008 ft | 167 kts | 324° |
| 2026-05-07 00:36 | 33.17932 | -117.84701 | 8006 ft | 167 kts | 324° |
| 2026-05-07 00:37 | 33.18817 | -117.85602 | 8010 ft | 168 kts | 324° |
| 2026-05-07 00:37 | 33.19802 | -117.86294 | 8003 ft | 162 kts | 348° |
| 2026-05-07 00:37 | 33.20901 | -117.86553 | 8007 ft | 161 kts | 352° |
| 2026-05-07 00:37 | 33.22001 | -117.86833 | 8008 ft | 162 kts | 351° |
| 2026-05-07 00:38 | 33.23101 | -117.87111 | 8007 ft | 162 kts | 351° |
| 2026-05-07 00:38 | 33.24203 | -117.87385 | 8007 ft | 162 kts | 352° |
| 2026-05-07 00:38 | 33.25304 | -117.87659 | 8010 ft | 162 kts | 352° |
| 2026-05-07 00:38 | 33.26406 | -117.87932 | 8010 ft | 162 kts | 352° |
| 2026-05-07 00:39 | 33.27507 | -117.88207 | 8010 ft | 162 kts | 352° |
| 2026-05-07 00:39 | 33.28608 | -117.88480 | 8011 ft | 162 kts | 352° |
| 2026-05-07 00:39 | 33.29709 | -117.88755 | 8011 ft | 162 kts | 352° |
| 2026-05-07 00:39 | 33.30809 | -117.89028 | 8010 ft | 162 kts | 352° |
| 2026-05-07 00:40 | 33.31913 | -117.89303 | 8008 ft | 162 kts | 352° |
| 2026-05-07 00:40 | 33.33011 | -117.89577 | 8010 ft | 161 kts | 351° |
| 2026-05-07 00:40 | 33.34113 | -117.89852 | 8009 ft | 161 kts | 351° |
| 2026-05-07 00:40 | 33.35212 | -117.90126 | 8006 ft | 162 kts | 351° |
| 2026-05-07 00:41 | 33.36310 | -117.90399 | 8008 ft | 161 kts | 351° |
| 2026-05-07 00:41 | 33.37410 | -117.90674 | 8005 ft | 161 kts | 352° |
| 2026-05-07 00:41 | 33.38493 | -117.91037 | 8002 ft | 164 kts | 337° |
| 2026-05-07 00:41 | 33.39412 | -117.91875 | 8007 ft | 167 kts | 325° |
| 2026-05-07 00:42 | 33.40323 | -117.92741 | 8008 ft | 167 kts | 327° |
| 2026-05-07 00:42 | 33.41238 | -117.93596 | 8008 ft | 167 kts | 326° |
| 2026-05-07 00:42 | 33.42141 | -117.94450 | 8008 ft | 167 kts | 326° |
| 2026-05-07 00:42 | 33.43056 | -117.95314 | 8010 ft | 168 kts | 326° |
| 2026-05-07 00:43 | 33.43972 | -117.96180 | 8008 ft | 168 kts | 326° |
| 2026-05-07 00:43 | 33.44884 | -117.97044 | 8008 ft | 167 kts | 326° |
| 2026-05-07 00:43 | 33.45798 | -117.97908 | 8007 ft | 167 kts | 326° |
| 2026-05-07 00:43 | 33.46713 | -117.98774 | 8007 ft | 168 kts | 326° |
| 2026-05-07 00:44 | 33.47627 | -117.99639 | 8007 ft | 168 kts | 326° |
| 2026-05-07 00:44 | 33.48542 | -118.00504 | 8005 ft | 167 kts | 326° |
| 2026-05-07 00:44 | 33.49456 | -118.01370 | 8004 ft | 167 kts | 326° |
| 2026-05-07 00:44 | 33.50369 | -118.02234 | 8006 ft | 168 kts | 326° |
| 2026-05-07 00:45 | 33.51282 | -118.03097 | 8005 ft | 167 kts | 326° |
| 2026-05-07 00:45 | 33.52197 | -118.03967 | 8004 ft | 167 kts | 326° |
| 2026-05-07 00:45 | 33.53109 | -118.04832 | 8004 ft | 167 kts | 326° |
| 2026-05-07 00:45 | 33.54022 | -118.05698 | 8002 ft | 167 kts | 326° |
| 2026-05-07 00:46 | 33.54937 | -118.06567 | 8003 ft | 168 kts | 326° |
| 2026-05-07 00:46 | 33.55851 | -118.07432 | 8004 ft | 167 kts | 326° |
| 2026-05-07 00:46 | 33.56763 | -118.08298 | 8001 ft | 168 kts | 326° |
| 2026-05-07 00:46 | 33.57680 | -118.09169 | 8000 ft | 168 kts | 326° |
| 2026-05-07 00:47 | 33.58596 | -118.10038 | 7980 ft | 168 kts | 326° |
| 2026-05-07 00:47 | 33.59512 | -118.10909 | 7980 ft | 168 kts | 326° |
| 2026-05-07 00:47 | 33.60426 | -118.11778 | 7978 ft | 168 kts | 326° |
| 2026-05-07 00:47 | 33.61342 | -118.12649 | 7975 ft | 168 kts | 326° |
| 2026-05-07 00:48 | 33.62258 | -118.13519 | 7975 ft | 168 kts | 326° |
| 2026-05-07 00:48 | 33.63173 | -118.14390 | 7972 ft | 168 kts | 326° |
| 2026-05-07 00:48 | 33.64088 | -118.15259 | 7971 ft | 168 kts | 326° |
| 2026-05-07 00:48 | 33.65000 | -118.16129 | 7971 ft | 168 kts | 326° |
| 2026-05-07 00:49 | 33.65916 | -118.16999 | 7991 ft | 168 kts | 326° |
| 2026-05-07 00:49 | 33.66839 | -118.17855 | 7989 ft | 167 kts | 328° |
| 2026-05-07 00:49 | 33.67758 | -118.18715 | 7987 ft | 168 kts | 326° |
| 2026-05-07 00:49 | 33.68670 | -118.19588 | 7986 ft | 168 kts | 326° |
| 2026-05-07 00:50 | 33.69584 | -118.20464 | 7986 ft | 168 kts | 326° |
| 2026-05-07 00:50 | 33.70498 | -118.21336 | 7985 ft | 168 kts | 327° |
| 2026-05-07 00:50 | 33.71409 | -118.22203 | 7984 ft | 168 kts | 327° |
| 2026-05-07 00:50 | 33.72323 | -118.23075 | 7984 ft | 167 kts | 326° |
| 2026-05-07 00:51 | 33.73232 | -118.23945 | 8004 ft | 167 kts | 326° |
| 2026-05-07 00:51 | 33.74150 | -118.24818 | 7999 ft | 168 kts | 326° |
| 2026-05-07 00:51 | 33.75064 | -118.25691 | 8004 ft | 168 kts | 326° |
| 2026-05-07 00:51 | 33.75977 | -118.26568 | 8004 ft | 168 kts | 326° |
| 2026-05-07 00:52 | 33.76889 | -118.27449 | 8002 ft | 168 kts | 326° |
| 2026-05-07 00:52 | 33.77805 | -118.28325 | 8000 ft | 168 kts | 326° |
| 2026-05-07 00:52 | 33.78715 | -118.29202 | 8000 ft | 168 kts | 326° |
| 2026-05-07 00:52 | 33.79626 | -118.30075 | 8000 ft | 167 kts | 326° |
| 2026-05-07 00:53 | 33.80537 | -118.30944 | 8003 ft | 167 kts | 326° |
| 2026-05-07 00:53 | 33.81446 | -118.31815 | 8000 ft | 167 kts | 326° |
| 2026-05-07 00:53 | 33.82356 | -118.32685 | 8000 ft | 167 kts | 326° |
| 2026-05-07 00:53 | 33.83265 | -118.33555 | 8003 ft | 167 kts | 326° |
| 2026-05-07 00:54 | 33.84175 | -118.34429 | 8002 ft | 168 kts | 326° |
| 2026-05-07 00:54 | 33.85087 | -118.35302 | 8002 ft | 167 kts | 327° |
| 2026-05-07 00:54 | 33.85996 | -118.36172 | 8001 ft | 167 kts | 326° |
| 2026-05-07 00:54 | 33.86909 | -118.37046 | 8002 ft | 167 kts | 326° |
| 2026-05-07 00:55 | 33.87823 | -118.37915 | 8003 ft | 167 kts | 327° |
| 2026-05-07 00:55 | 33.88723 | -118.38777 | 8006 ft | 168 kts | 326° |
| 2026-05-07 00:55 | 33.89635 | -118.39653 | 8006 ft | 168 kts | 326° |
| 2026-05-07 00:55 | 33.90561 | -118.40542 | 8004 ft | 168 kts | 326° |
| 2026-05-07 00:56 | 33.91466 | -118.41410 | 8007 ft | 168 kts | 326° |
| 2026-05-07 00:56 | 33.92383 | -118.42288 | 8006 ft | 169 kts | 326° |
| 2026-05-07 00:56 | 33.93259 | -118.43237 | 8003 ft | 173 kts | 312° |
| 2026-05-07 00:56 | 33.93776 | -118.44573 | 8003 ft | 178 kts | 294° |
| 2026-05-07 00:57 | 33.94202 | -118.45964 | 8004 ft | 177 kts | 295° |
| 2026-05-07 00:57 | 33.94650 | -118.47342 | 8003 ft | 176 kts | 295° |
| 2026-05-07 00:57 | 33.95091 | -118.48716 | 8005 ft | 176 kts | 295° |
| 2026-05-07 00:57 | 33.95527 | -118.50086 | 8004 ft | 176 kts | 295° |
| 2026-05-07 00:58 | 33.95964 | -118.51460 | 8002 ft | 176 kts | 295° |
| 2026-05-07 00:58 | 33.96404 | -118.52835 | 8001 ft | 176 kts | 295° |
| 2026-05-07 00:58 | 33.96843 | -118.54213 | 7999 ft | 176 kts | 295° |
| 2026-05-07 00:58 | 33.97280 | -118.55585 | 8001 ft | 176 kts | 295° |
| 2026-05-07 00:59 | 33.98158 | -118.58341 | 8001 ft | 176 kts | 295° |
| 2026-05-07 00:59 | 33.98598 | -118.59721 | 7999 ft | 176 kts | 296° |
| 2026-05-07 00:59 | 33.99037 | -118.61102 | 8001 ft | 176 kts | 295° |
| 2026-05-07 01:00 | 33.99469 | -118.62476 | 8001 ft | 176 kts | 295° |
| 2026-05-07 01:00 | 33.99904 | -118.63852 | 8003 ft | 175 kts | 295° |
| 2026-05-07 01:00 | 34.00340 | -118.65222 | 8000 ft | 175 kts | 295° |
| 2026-05-07 01:00 | 34.00775 | -118.66590 | 8002 ft | 175 kts | 296° |
| 2026-05-07 01:01 | 34.01211 | -118.67961 | 8003 ft | 175 kts | 296° |
| 2026-05-07 01:01 | 34.01646 | -118.69332 | 8002 ft | 175 kts | 296° |
| 2026-05-07 01:01 | 34.02082 | -118.70699 | 8000 ft | 175 kts | 296° |
| 2026-05-07 01:01 | 34.02515 | -118.72071 | 7998 ft | 175 kts | 295° |
| 2026-05-07 01:02 | 34.02948 | -118.73443 | 8003 ft | 175 kts | 296° |
| 2026-05-07 01:02 | 34.03383 | -118.74816 | 8003 ft | 175 kts | 296° |
| 2026-05-07 01:02 | 34.03818 | -118.76185 | 7999 ft | 175 kts | 296° |
| 2026-05-07 01:02 | 34.04197 | -118.77593 | 8006 ft | 177 kts | 292° |
| 2026-05-07 01:03 | 34.04579 | -118.79004 | 8003 ft | 177 kts | 293° |
| 2026-05-07 01:03 | 34.04963 | -118.80413 | 8005 ft | 177 kts | 293° |
| 2026-05-07 01:03 | 34.05342 | -118.81824 | 8007 ft | 176 kts | 292° |
| 2026-05-07 01:03 | 34.05720 | -118.83234 | 8009 ft | 178 kts | 293° |
| 2026-05-07 01:04 | 34.06099 | -118.84649 | 8011 ft | 177 kts | 292° |
| 2026-05-07 01:04 | 34.06480 | -118.86068 | 8018 ft | 179 kts | 292° |
| 2026-05-07 01:04 | 34.06859 | -118.87489 | 8017 ft | 177 kts | 292° |
| 2026-05-07 01:04 | 34.07234 | -118.88900 | 8019 ft | 176 kts | 292° |
| 2026-05-07 01:05 | 34.07609 | -118.90305 | 8020 ft | 176 kts | 292° |
| 2026-05-07 01:05 | 34.07859 | -118.91238 | 8024 ft | 177 kts | 292° |
| 2026-05-07 01:05 | 34.08366 | -118.93135 | 8027 ft | 178 kts | 292° |
| 2026-05-07 01:05 | 34.08746 | -118.94557 | 8028 ft | 178 kts | 292° |
| 2026-05-07 01:06 | 34.09125 | -118.95980 | 8024 ft | 178 kts | 292° |
| 2026-05-07 01:06 | 34.09500 | -118.97383 | 8028 ft | 178 kts | 292° |
| 2026-05-07 01:06 | 34.09884 | -118.98828 | 8028 ft | 178 kts | 292° |
| 2026-05-07 01:06 | 34.10258 | -119.00233 | 8029 ft | 178 kts | 292° |
| 2026-05-07 01:07 | 34.10642 | -119.01675 | 8025 ft | 178 kts | 292° |
| 2026-05-07 01:07 | 34.11015 | -119.03080 | 8026 ft | 178 kts | 291° |
| 2026-05-07 01:07 | 34.11391 | -119.04495 | 8026 ft | 177 kts | 292° |
| 2026-05-07 01:07 | 34.11959 | -119.05782 | 8023 ft | 173 kts | 310° |
| 2026-05-07 01:08 | 34.12647 | -119.06983 | 8024 ft | 175 kts | 307° |
| 2026-05-07 01:08 | 34.13315 | -119.08209 | 8022 ft | 175 kts | 307° |
| 2026-05-07 01:08 | 34.13985 | -119.09429 | 8025 ft | 174 kts | 307° |
| 2026-05-07 01:08 | 34.14655 | -119.10645 | 8024 ft | 174 kts | 307° |
| 2026-05-07 01:09 | 34.15325 | -119.11861 | 8023 ft | 174 kts | 307° |
| 2026-05-07 01:09 | 34.15996 | -119.13079 | 8023 ft | 174 kts | 307° |
| 2026-05-07 01:09 | 34.16668 | -119.14296 | 8024 ft | 174 kts | 307° |
| 2026-05-07 01:09 | 34.17338 | -119.15513 | 8006 ft | 174 kts | 307° |
| 2026-05-07 01:10 | 34.18007 | -119.16730 | 8004 ft | 174 kts | 307° |
| 2026-05-07 01:10 | 34.18676 | -119.17944 | 8001 ft | 174 kts | 307° |
| 2026-05-07 01:10 | 34.19345 | -119.19162 | 8003 ft | 174 kts | 307° |
| 2026-05-07 01:10 | 34.20012 | -119.20374 | 8003 ft | 174 kts | 307° |
| 2026-05-07 01:11 | 34.20683 | -119.21595 | 8001 ft | 174 kts | 307° |
| 2026-05-07 01:11 | 34.21348 | -119.22808 | 8003 ft | 173 kts | 306° |
| 2026-05-07 01:11 | 34.22016 | -119.24023 | 8002 ft | 173 kts | 307° |
| 2026-05-07 01:11 | 34.22682 | -119.25235 | 8001 ft | 173 kts | 307° |
| 2026-05-07 01:12 | 34.23346 | -119.26445 | 8001 ft | 173 kts | 306° |
| 2026-05-07 01:12 | 34.24010 | -119.27655 | 8004 ft | 173 kts | 306° |
| 2026-05-07 01:12 | 34.24675 | -119.28866 | 8003 ft | 173 kts | 306° |
| 2026-05-07 01:12 | 34.25340 | -119.30076 | 8003 ft | 172 kts | 306° |
| 2026-05-07 01:13 | 34.26000 | -119.31280 | 8002 ft | 172 kts | 306° |
| 2026-05-07 01:13 | 34.26659 | -119.32485 | 8004 ft | 172 kts | 306° |
| 2026-05-07 01:13 | 34.27322 | -119.33694 | 8005 ft | 172 kts | 306° |
| 2026-05-07 01:13 | 34.27982 | -119.34899 | 8002 ft | 172 kts | 306° |
| 2026-05-07 01:14 | 34.28419 | -119.35699 | 8006 ft | 172 kts | 306° |
| 2026-05-07 01:14 | 34.29079 | -119.36902 | 8004 ft | 172 kts | 306° |
| 2026-05-07 01:14 | 34.29737 | -119.38103 | 8006 ft | 171 kts | 306° |
| 2026-05-07 01:14 | 34.30397 | -119.39305 | 8005 ft | 171 kts | 305° |
| 2026-05-07 01:15 | 34.31050 | -119.40508 | 8004 ft | 171 kts | 305° |
| 2026-05-07 01:15 | 34.31708 | -119.41700 | 8004 ft | 171 kts | 306° |
| 2026-05-07 01:15 | 34.32360 | -119.42898 | 8008 ft | 171 kts | 305° |
| 2026-05-07 01:15 | 34.33014 | -119.44101 | 8006 ft | 171 kts | 304° |
| 2026-05-07 01:16 | 34.33667 | -119.45297 | 8007 ft | 170 kts | 305° |
| 2026-05-07 01:16 | 34.34321 | -119.46488 | 8007 ft | 170 kts | 305° |
| 2026-05-07 01:16 | 34.34974 | -119.47686 | 8005 ft | 170 kts | 305° |
| 2026-05-07 01:16 | 34.35623 | -119.48878 | 8003 ft | 170 kts | 305° |
| 2026-05-07 01:17 | 34.36275 | -119.50073 | 8005 ft | 170 kts | 305° |
| 2026-05-07 01:17 | 34.36925 | -119.51268 | 8000 ft | 170 kts | 305° |
| 2026-05-07 01:17 | 34.37574 | -119.52457 | 8001 ft | 169 kts | 305° |
| 2026-05-07 01:17 | 34.38224 | -119.53649 | 8003 ft | 170 kts | 305° |
| 2026-05-07 01:18 | 34.38873 | -119.54840 | 8000 ft | 170 kts | 305° |
| 2026-05-07 01:18 | 34.39524 | -119.56037 | 8000 ft | 170 kts | 304° |
| 2026-05-07 01:18 | 34.40173 | -119.57231 | 8003 ft | 170 kts | 305° |
| 2026-05-07 01:18 | 34.40827 | -119.58428 | 7999 ft | 170 kts | 305° |
| 2026-05-07 01:19 | 34.41477 | -119.59622 | 7997 ft | 170 kts | 304° |
| 2026-05-07 01:19 | 34.42126 | -119.60821 | 7997 ft | 170 kts | 304° |
| 2026-05-07 01:19 | 34.42776 | -119.62017 | 8000 ft | 171 kts | 304° |
| 2026-05-07 01:19 | 34.43435 | -119.63224 | 7999 ft | 171 kts | 305° |
| 2026-05-07 01:20 | 34.44086 | -119.64425 | 7999 ft | 171 kts | 305° |
| 2026-05-07 01:20 | 34.44738 | -119.65621 | 7996 ft | 170 kts | 304° |
| 2026-05-07 01:20 | 34.45387 | -119.66819 | 8000 ft | 170 kts | 304° |
| 2026-05-07 01:20 | 34.46029 | -119.68002 | 7997 ft | 170 kts | 305° |
| 2026-05-07 01:21 | 34.46691 | -119.69219 | 7995 ft | 170 kts | 304° |
| 2026-05-07 01:21 | 34.47327 | -119.70398 | 7988 ft | 169 kts | 304° |
| 2026-05-07 01:21 | 34.47973 | -119.71590 | 7968 ft | 170 kts | 304° |
| 2026-05-07 01:21 | 34.48625 | -119.72792 | 7932 ft | 171 kts | 304° |
| 2026-05-07 01:22 | 34.49277 | -119.73996 | 7934 ft | 170 kts | 304° |
| 2026-05-07 01:22 | 34.49928 | -119.75196 | 7939 ft | 170 kts | 304° |
| 2026-05-07 01:22 | 34.50584 | -119.76405 | 7936 ft | 172 kts | 304° |
| 2026-05-07 01:22 | 34.51018 | -119.77757 | 7936 ft | 176 kts | 278° |
| 2026-05-07 01:23 | 34.51101 | -119.79231 | 7936 ft | 175 kts | 275° |
| 2026-05-07 01:23 | 34.51203 | -119.80696 | 7937 ft | 174 kts | 276° |
| 2026-05-07 01:23 | 34.51305 | -119.82157 | 7938 ft | 174 kts | 276° |
| 2026-05-07 01:23 | 34.51410 | -119.83624 | 7932 ft | 175 kts | 276° |
| 2026-05-07 01:24 | 34.51509 | -119.85089 | 7932 ft | 174 kts | 276° |
| 2026-05-07 01:24 | 34.51612 | -119.86554 | 7932 ft | 174 kts | 276° |
| 2026-05-07 01:24 | 34.51708 | -119.88017 | 7935 ft | 174 kts | 276° |
| 2026-05-07 01:24 | 34.51808 | -119.89482 | 7938 ft | 175 kts | 276° |
| 2026-05-07 01:25 | 34.51909 | -119.90947 | 7935 ft | 174 kts | 276° |
| 2026-05-07 01:25 | 34.52010 | -119.92406 | 7935 ft | 174 kts | 276° |
| 2026-05-07 01:25 | 34.52108 | -119.93867 | 7939 ft | 174 kts | 276° |
| 2026-05-07 01:25 | 34.52207 | -119.95327 | 7934 ft | 174 kts | 276° |
| 2026-05-07 01:26 | 34.52307 | -119.96790 | 7963 ft | 173 kts | 276° |
| 2026-05-07 01:26 | 34.52405 | -119.98238 | 7961 ft | 172 kts | 276° |
| 2026-05-07 01:26 | 34.52502 | -119.99684 | 7966 ft | 172 kts | 276° |
| 2026-05-07 01:26 | 34.52600 | -120.01135 | 7968 ft | 173 kts | 276° |
| 2026-05-07 01:27 | 34.52698 | -120.02591 | 7969 ft | 174 kts | 276° |
| 2026-05-07 01:27 | 34.52798 | -120.04056 | 7967 ft | 174 kts | 276° |
| 2026-05-07 01:27 | 34.52895 | -120.05518 | 7969 ft | 174 kts | 275° |
| 2026-05-07 01:27 | 34.52994 | -120.06980 | 7969 ft | 174 kts | 276° |
| 2026-05-07 01:28 | 34.53157 | -120.08425 | 7960 ft | 173 kts | 289° |
| 2026-05-07 01:28 | 34.53778 | -120.09652 | 7958 ft | 171 kts | 315° |
| 2026-05-07 01:28 | 34.54702 | -120.10541 | 7966 ft | 170 kts | 324° |
| 2026-05-07 01:28 | 34.55651 | -120.11405 | 7966 ft | 171 kts | 323° |
| 2026-05-07 01:29 | 34.56598 | -120.12281 | 7954 ft | 171 kts | 323° |
| 2026-05-07 01:29 | 34.57538 | -120.13151 | 7702 ft | 168 kts | 323° |
| 2026-05-07 01:29 | 34.58458 | -120.14007 | 7457 ft | 166 kts | 323° |
| 2026-05-07 01:29 | 34.59372 | -120.14851 | 7216 ft | 164 kts | 323° |
| 2026-05-07 01:30 | 34.60278 | -120.15685 | 6974 ft | 163 kts | 323° |
| 2026-05-07 01:30 | 34.61186 | -120.16518 | 6740 ft | 163 kts | 323° |
| 2026-05-07 01:30 | 34.62097 | -120.17332 | 6504 ft | 163 kts | 324° |
| 2026-05-07 01:30 | 34.63011 | -120.18147 | 6253 ft | 160 kts | 324° |
| 2026-05-07 01:31 | 34.63879 | -120.18932 | 5999 ft | 153 kts | 324° |
| 2026-05-07 01:31 | 34.64719 | -120.19692 | 5745 ft | 148 kts | 325° |
| 2026-05-07 01:31 | 34.65533 | -120.20432 | 5492 ft | 146 kts | 322° |
| 2026-05-07 01:31 | 34.66097 | -120.21446 | 5250 ft | 149 kts | 289° |
| 2026-05-07 01:32 | 34.66194 | -120.22687 | 5009 ft | 150 kts | 272° |
| 2026-05-07 01:32 | 34.66203 | -120.23884 | 4742 ft | 134 kts | 275° |
| 2026-05-07 01:32 | 34.66221 | -120.24982 | 4459 ft | 125 kts | 275° |
| 2026-05-07 01:32 | 34.66234 | -120.26012 | 4187 ft | 120 kts | 276° |
| 2026-05-07 01:33 | 34.66250 | -120.27011 | 3942 ft | 116 kts | 277° |
| 2026-05-07 01:33 | 34.66263 | -120.27972 | 3678 ft | 111 kts | 276° |
| 2026-05-07 01:33 | 34.66281 | -120.28897 | 3434 ft | 109 kts | 277° |
| 2026-05-07 01:33 | 34.66288 | -120.29761 | 3315 ft | 99 kts | 278° |
| 2026-05-07 01:34 | 34.66299 | -120.30559 | 3157 ft | 89 kts | 279° |
| 2026-05-07 01:34 | 34.66314 | -120.31258 | 3087 ft | 86 kts | 280° |
| 2026-05-07 01:34 | 34.66333 | -120.32030 | 2948 ft | 97 kts | 281° |
| 2026-05-07 01:34 | 34.66356 | -120.32895 | 2774 ft | 106 kts | 278° |
| 2026-05-07 01:35 | 34.66363 | -120.33799 | 2588 ft | 108 kts | 278° |
| 2026-05-07 01:35 | 34.66375 | -120.34719 | 2404 ft | 109 kts | 277° |
| 2026-05-07 01:35 | 34.66386 | -120.35630 | 2217 ft | 107 kts | 278° |
| 2026-05-07 01:35 | 34.66399 | -120.36520 | 2036 ft | 103 kts | 277° |
| 2026-05-07 01:36 | 34.66415 | -120.37372 | 1868 ft | 101 kts | 279° |
| 2026-05-07 01:36 | 34.66428 | -120.38220 | 1697 ft | 100 kts | 276° |
| 2026-05-07 01:36 | 34.66436 | -120.39074 | 1532 ft | 104 kts | 274° |
| 2026-05-07 01:36 | 34.66447 | -120.39960 | 1350 ft | 106 kts | 274° |
| 2026-05-07 01:37 | 34.66462 | -120.40857 | 1172 ft | 107 kts | 272° |
| 2026-05-07 01:37 | 34.66477 | -120.41746 | 983 ft | 103 kts | 275° |
| 2026-05-07 01:37 | 34.66489 | -120.42602 | 809 ft | 100 kts | 272° |
| 2026-05-07 01:37 | 34.66501 | -120.43439 | 637 ft | 98 kts | 274° |
| 2026-05-07 01:38 | 34.66512 | -120.44278 | 463 ft | 99 kts | 272° |
| 2026-05-07 01:38 | 34.66524 | -120.45087 | 308 ft | 96 kts | 274° |
| 2026-05-07 01:38 | 34.66536 | -120.45913 | 155 ft | 99 kts | 276° |
| 2026-05-07 01:38 | 34.66542 | -120.46729 | 94 ft | 93 kts | 276° |
| 2026-05-07 01:39 | 34.66570 | -120.47476 | 140 ft | 84 kts | 275° |
| 2026-05-07 01:39 | 34.66576 | -120.47689 | 116 ft | 0 kts | 276° |